sensor_id;sensor_type;location;lat;lon;timestamp;temperature;humidity
9450;DHT22;4763;48.370;10.874;2023-05-13T00:02:11;10.60;99.90
9450;DHT22;4763;48.370;10.874;2023-05-13T00:04:58;10.70;99.90
9450;DHT22;4763;48.370;10.874;2023-05-13T00:07:47;10.60;99.90
9450;DHT22;4763;48.370;10.874;2023-05-13T00:10:34;10.60;99.90
9450;DHT22;4763;48.370;10.874;2023-05-13T00:13:21;10.60;99.90
9450;DHT22;4763;48.370;10.874;2023-05-13T00:16:08;10.60;99.90
9450;DHT22;4763;48.370;10.874;2023-05-13T00:18:55;10.50;99.90
9450;DHT22;4763;48.370;10.874;2023-05-13T00:21:42;10.50;99.90
9450;DHT22;4763;48.370;10.874;2023-05-13T00:24:31;10.50;99.90
9450;DHT22;4763;48.370;10.874;2023-05-13T00:27:18;10.50;99.90
9450;DHT22;4763;48.370;10.874;2023-05-13T00:30:06;10.50;99.90
9450;DHT22;4763;48.370;10.874;2023-05-13T00:32:53;10.50;99.90
9450;DHT22;4763;48.370;10.874;2023-05-13T00:35:40;10.40;99.90
9450;DHT22;4763;48.370;10.874;2023-05-13T00:38:27;10.40;99.90
9450;DHT22;4763;48.370;10.874;2023-05-13T00:41:16;10.30;99.90
9450;DHT22;4763;48.370;10.874;2023-05-13T00:44:04;10.40;99.90
9450;DHT22;4763;48.370;10.874;2023-05-13T00:46:51;10.30;99.90
9450;DHT22;4763;48.370;10.874;2023-05-13T00:49:39;10.30;99.90
9450;DHT22;4763;48.370;10.874;2023-05-13T00:52:26;10.30;99.90
9450;DHT22;4763;48.370;10.874;2023-05-13T00:55:13;10.30;99.90
9450;DHT22;4763;48.370;10.874;2023-05-13T00:58:02;10.20;99.90
9450;DHT22;4763;48.370;10.874;2023-05-13T01:00:59;10.30;99.90
9450;DHT22;4763;48.370;10.874;2023-05-13T01:03:55;10.20;99.90
9450;DHT22;4763;48.370;10.874;2023-05-13T01:06:48;10.20;99.90
9450;DHT22;4763;48.370;10.874;2023-05-13T01:09:45;10.20;99.90
9450;DHT22;4763;48.370;10.874;2023-05-13T01:12:35;10.20;99.90
9450;DHT22;4763;48.370;10.874;2023-05-13T01:15:25;10.20;99.90
9450;DHT22;4763;48.370;10.874;2023-05-13T01:18:14;10.30;99.90
9450;DHT22;4763;48.370;10.874;2023-05-13T01:21:05;10.20;99.90
9450;DHT22;4763;48.370;10.874;2023-05-13T01:23:54;10.30;99.90
9450;DHT22;4763;48.370;10.874;2023-05-13T01:26:41;10.20;99.90
9450;DHT22;4763;48.370;10.874;2023-05-13T01:29:29;10.30;99.90
9450;DHT22;4763;48.370;10.874;2023-05-13T01:32:17;10.30;99.90
9450;DHT22;4763;48.370;10.874;2023-05-13T01:35:05;10.30;99.90
9450;DHT22;4763;48.370;10.874;2023-05-13T01:37:54;10.30;99.90
9450;DHT22;4763;48.370;10.874;2023-05-13T01:40:44;10.30;99.90
9450;DHT22;4763;48.370;10.874;2023-05-13T01:43:31;10.20;99.90
9450;DHT22;4763;48.370;10.874;2023-05-13T01:46:18;10.20;99.90
9450;DHT22;4763;48.370;10.874;2023-05-13T01:49:05;10.30;99.90
9450;DHT22;4763;48.370;10.874;2023-05-13T01:51:54;10.20;99.90
9450;DHT22;4763;48.370;10.874;2023-05-13T01:54:41;10.20;99.90
9450;DHT22;4763;48.370;10.874;2023-05-13T01:57:29;10.20;99.90
9450;DHT22;4763;48.370;10.874;2023-05-13T02:00:17;10.20;99.90
9450;DHT22;4763;48.370;10.874;2023-05-13T02:03:04;10.20;99.90
9450;DHT22;4763;48.370;10.874;2023-05-13T02:05:51;10.30;99.90
9450;DHT22;4763;48.370;10.874;2023-05-13T02:08:38;10.20;99.90
9450;DHT22;4763;48.370;10.874;2023-05-13T02:11:25;10.20;99.90
9450;DHT22;4763;48.370;10.874;2023-05-13T02:14:13;10.20;99.90
9450;DHT22;4763;48.370;10.874;2023-05-13T02:17:00;10.20;99.90
9450;DHT22;4763;48.370;10.874;2023-05-13T02:19:48;10.20;99.90
9450;DHT22;4763;48.370;10.874;2023-05-13T02:22:35;10.20;99.90
9450;DHT22;4763;48.370;10.874;2023-05-13T02:25:22;10.20;99.90
9450;DHT22;4763;48.370;10.874;2023-05-13T02:28:09;10.20;99.90
9450;DHT22;4763;48.370;10.874;2023-05-13T02:30:57;10.20;99.90
9450;DHT22;4763;48.370;10.874;2023-05-13T02:33:44;10.20;99.90
9450;DHT22;4763;48.370;10.874;2023-05-13T02:36:31;10.20;99.90
9450;DHT22;4763;48.370;10.874;2023-05-13T02:39:18;10.20;99.90
9450;DHT22;4763;48.370;10.874;2023-05-13T02:42:05;10.20;99.90
9450;DHT22;4763;48.370;10.874;2023-05-13T02:44:52;10.20;99.90
9450;DHT22;4763;48.370;10.874;2023-05-13T02:47:41;10.20;99.90
9450;DHT22;4763;48.370;10.874;2023-05-13T02:50:28;10.20;99.90
9450;DHT22;4763;48.370;10.874;2023-05-13T02:53:15;10.20;99.90
9450;DHT22;4763;48.370;10.874;2023-05-13T02:56:02;10.20;99.90
9450;DHT22;4763;48.370;10.874;2023-05-13T02:58:49;10.20;99.90
9450;DHT22;4763;48.370;10.874;2023-05-13T03:01:37;10.20;99.90
9450;DHT22;4763;48.370;10.874;2023-05-13T03:04:25;10.20;99.90
9450;DHT22;4763;48.370;10.874;2023-05-13T03:07:12;10.20;99.90
9450;DHT22;4763;48.370;10.874;2023-05-13T03:09:59;10.20;99.90
9450;DHT22;4763;48.370;10.874;2023-05-13T03:12:46;10.20;99.90
9450;DHT22;4763;48.370;10.874;2023-05-13T03:15:33;10.10;99.90
9450;DHT22;4763;48.370;10.874;2023-05-13T03:18:20;10.20;99.90
9450;DHT22;4763;48.370;10.874;2023-05-13T03:21:09;10.10;99.90
9450;DHT22;4763;48.370;10.874;2023-05-13T03:23:56;10.20;99.90
9450;DHT22;4763;48.370;10.874;2023-05-13T03:26:43;10.10;99.90
9450;DHT22;4763;48.370;10.874;2023-05-13T03:29:30;10.10;99.90
9450;DHT22;4763;48.370;10.874;2023-05-13T03:32:17;10.10;99.90
9450;DHT22;4763;48.370;10.874;2023-05-13T03:35:04;10.10;99.90
9450;DHT22;4763;48.370;10.874;2023-05-13T03:37:53;10.10;99.90
9450;DHT22;4763;48.370;10.874;2023-05-13T03:40:40;10.10;99.90
9450;DHT22;4763;48.370;10.874;2023-05-13T03:43:27;10.20;99.90
9450;DHT22;4763;48.370;10.874;2023-05-13T03:46:14;10.20;99.90
9450;DHT22;4763;48.370;10.874;2023-05-13T03:49:01;10.20;99.90
9450;DHT22;4763;48.370;10.874;2023-05-13T03:51:48;10.10;99.90
9450;DHT22;4763;48.370;10.874;2023-05-13T03:54:36;10.10;99.90
9450;DHT22;4763;48.370;10.874;2023-05-13T03:57:23;10.20;99.90
9450;DHT22;4763;48.370;10.874;2023-05-13T04:00:12;10.20;99.90
9450;DHT22;4763;48.370;10.874;2023-05-13T04:02:59;10.20;99.90
9450;DHT22;4763;48.370;10.874;2023-05-13T04:05:46;10.20;99.90
9450;DHT22;4763;48.370;10.874;2023-05-13T04:08:33;10.10;99.90
9450;DHT22;4763;48.370;10.874;2023-05-13T04:11:22;10.10;99.90
9450;DHT22;4763;48.370;10.874;2023-05-13T04:14:09;10.10;99.90
9450;DHT22;4763;48.370;10.874;2023-05-13T04:16:56;10.10;99.90
9450;DHT22;4763;48.370;10.874;2023-05-13T04:19:43;10.10;99.90
9450;DHT22;4763;48.370;10.874;2023-05-13T04:22:30;10.10;99.90
9450;DHT22;4763;48.370;10.874;2023-05-13T04:25:17;10.10;99.90
9450;DHT22;4763;48.370;10.874;2023-05-13T04:28:06;10.20;99.90
9450;DHT22;4763;48.370;10.874;2023-05-13T04:30:53;10.20;99.90
9450;DHT22;4763;48.370;10.874;2023-05-13T04:33:40;10.10;99.90
9450;DHT22;4763;48.370;10.874;2023-05-13T04:36:27;10.10;99.90
9450;DHT22;4763;48.370;10.874;2023-05-13T04:39:14;10.10;99.90
9450;DHT22;4763;48.370;10.874;2023-05-13T04:42:01;10.10;99.90
9450;DHT22;4763;48.370;10.874;2023-05-13T04:44:49;10.10;99.90
9450;DHT22;4763;48.370;10.874;2023-05-13T04:47:36;10.20;99.90
9450;DHT22;4763;48.370;10.874;2023-05-13T04:50:23;10.20;99.90
9450;DHT22;4763;48.370;10.874;2023-05-13T04:53:10;10.20;99.90
9450;DHT22;4763;48.370;10.874;2023-05-13T04:55:57;10.20;99.90
9450;DHT22;4763;48.370;10.874;2023-05-13T04:58:45;10.20;99.90
9450;DHT22;4763;48.370;10.874;2023-05-13T05:01:34;10.20;99.90
9450;DHT22;4763;48.370;10.874;2023-05-13T05:04:21;10.20;99.90
9450;DHT22;4763;48.370;10.874;2023-05-13T05:07:08;10.20;99.90
9450;DHT22;4763;48.370;10.874;2023-05-13T05:09:55;10.20;99.90
9450;DHT22;4763;48.370;10.874;2023-05-13T05:12:42;10.20;99.90
9450;DHT22;4763;48.370;10.874;2023-05-13T05:15:29;10.30;99.90
9450;DHT22;4763;48.370;10.874;2023-05-13T05:18:18;10.30;99.90
9450;DHT22;4763;48.370;10.874;2023-05-13T05:21:05;10.30;99.90
9450;DHT22;4763;48.370;10.874;2023-05-13T05:23:52;10.30;99.90
9450;DHT22;4763;48.370;10.874;2023-05-13T05:26:39;10.30;99.90
9450;DHT22;4763;48.370;10.874;2023-05-13T05:29:26;10.30;99.90
9450;DHT22;4763;48.370;10.874;2023-05-13T05:32:13;10.20;99.90
9450;DHT22;4763;48.370;10.874;2023-05-13T05:35:01;10.30;99.90
9450;DHT22;4763;48.370;10.874;2023-05-13T05:37:48;10.30;99.90
9450;DHT22;4763;48.370;10.874;2023-05-13T05:40:39;10.30;99.90
9450;DHT22;4763;48.370;10.874;2023-05-13T05:43:26;10.30;99.90
9450;DHT22;4763;48.370;10.874;2023-05-13T05:46:13;10.40;99.90
9450;DHT22;4763;48.370;10.874;2023-05-13T05:49:00;10.40;99.90
9450;DHT22;4763;48.370;10.874;2023-05-13T05:51:49;10.40;99.90
9450;DHT22;4763;48.370;10.874;2023-05-13T05:54:36;10.50;99.90
9450;DHT22;4763;48.370;10.874;2023-05-13T05:57:23;10.40;99.90
9450;DHT22;4763;48.370;10.874;2023-05-13T06:00:11;10.50;99.90
9450;DHT22;4763;48.370;10.874;2023-05-13T06:02:59;10.50;99.90
9450;DHT22;4763;48.370;10.874;2023-05-13T06:05:46;10.50;99.90
9450;DHT22;4763;48.370;10.874;2023-05-13T06:08:34;10.40;99.90
9450;DHT22;4763;48.370;10.874;2023-05-13T06:11:21;10.40;99.90
9450;DHT22;4763;48.370;10.874;2023-05-13T06:14:09;10.40;99.90
9450;DHT22;4763;48.370;10.874;2023-05-13T06:16:56;10.50;99.90
9450;DHT22;4763;48.370;10.874;2023-05-13T06:19:43;10.50;99.90
9450;DHT22;4763;48.370;10.874;2023-05-13T06:22:30;10.50;99.90
9450;DHT22;4763;48.370;10.874;2023-05-13T06:25:18;10.50;99.90
9450;DHT22;4763;48.370;10.874;2023-05-13T06:28:05;10.40;99.90
9450;DHT22;4763;48.370;10.874;2023-05-13T06:30:53;10.40;99.90
9450;DHT22;4763;48.370;10.874;2023-05-13T06:33:40;10.50;99.90
9450;DHT22;4763;48.370;10.874;2023-05-13T06:36:27;10.50;99.90
9450;DHT22;4763;48.370;10.874;2023-05-13T06:39:14;10.60;99.90
9450;DHT22;4763;48.370;10.874;2023-05-13T06:42:03;10.60;99.90
9450;DHT22;4763;48.370;10.874;2023-05-13T06:44:50;10.60;99.90
9450;DHT22;4763;48.370;10.874;2023-05-13T06:47:37;10.50;99.90
9450;DHT22;4763;48.370;10.874;2023-05-13T06:50:24;10.60;99.90
9450;DHT22;4763;48.370;10.874;2023-05-13T06:53:11;10.60;99.90
9450;DHT22;4763;48.370;10.874;2023-05-13T06:55:58;10.60;99.90
9450;DHT22;4763;48.370;10.874;2023-05-13T06:58:46;10.60;99.90
9450;DHT22;4763;48.370;10.874;2023-05-13T07:01:33;10.60;99.90
9450;DHT22;4763;48.370;10.874;2023-05-13T07:04:20;10.60;99.90
9450;DHT22;4763;48.370;10.874;2023-05-13T07:07:07;10.60;99.90
9450;DHT22;4763;48.370;10.874;2023-05-13T07:09:54;10.60;99.90
9450;DHT22;4763;48.370;10.874;2023-05-13T07:12:42;10.50;99.90
9450;DHT22;4763;48.370;10.874;2023-05-13T07:15:30;10.60;99.90
9450;DHT22;4763;48.370;10.874;2023-05-13T07:18:17;10.60;99.90
9450;DHT22;4763;48.370;10.874;2023-05-13T07:21:04;10.70;99.90
9450;DHT22;4763;48.370;10.874;2023-05-13T07:23:52;10.60;99.90
9450;DHT22;4763;48.370;10.874;2023-05-13T07:26:39;10.60;99.90
9450;DHT22;4763;48.370;10.874;2023-05-13T07:29:26;10.70;99.90
9450;DHT22;4763;48.370;10.874;2023-05-13T07:32:14;10.70;99.90
9450;DHT22;4763;48.370;10.874;2023-05-13T07:35:01;10.70;99.90
9450;DHT22;4763;48.370;10.874;2023-05-13T07:37:48;10.70;99.90
9450;DHT22;4763;48.370;10.874;2023-05-13T07:40:35;10.70;99.90
9450;DHT22;4763;48.370;10.874;2023-05-13T07:43:22;10.80;99.90
9450;DHT22;4763;48.370;10.874;2023-05-13T07:46:10;10.80;99.90
9450;DHT22;4763;48.370;10.874;2023-05-13T07:48:58;10.90;99.90
9450;DHT22;4763;48.370;10.874;2023-05-13T07:51:45;10.90;99.90
9450;DHT22;4763;48.370;10.874;2023-05-13T07:54:32;10.90;99.90
9450;DHT22;4763;48.370;10.874;2023-05-13T07:57:19;11.00;99.90
9450;DHT22;4763;48.370;10.874;2023-05-13T08:00:07;11.00;99.90
9450;DHT22;4763;48.370;10.874;2023-05-13T08:02:54;11.00;99.90
9450;DHT22;4763;48.370;10.874;2023-05-13T08:05:43;11.00;99.90
9450;DHT22;4763;48.370;10.874;2023-05-13T08:08:31;11.10;99.90
9450;DHT22;4763;48.370;10.874;2023-05-13T08:11:18;11.10;99.90
9450;DHT22;4763;48.370;10.874;2023-05-13T08:14:06;11.10;99.90
9450;DHT22;4763;48.370;10.874;2023-05-13T08:16:53;11.20;99.90
9450;DHT22;4763;48.370;10.874;2023-05-13T08:19:40;11.30;99.90
9450;DHT22;4763;48.370;10.874;2023-05-13T08:22:28;11.40;99.90
9450;DHT22;4763;48.370;10.874;2023-05-13T08:25:15;11.40;99.90
9450;DHT22;4763;48.370;10.874;2023-05-13T08:28:03;11.50;99.90
9450;DHT22;4763;48.370;10.874;2023-05-13T08:30:50;11.60;99.90
9450;DHT22;4763;48.370;10.874;2023-05-13T08:33:38;11.60;99.90
9450;DHT22;4763;48.370;10.874;2023-05-13T08:36:26;11.60;99.90
9450;DHT22;4763;48.370;10.874;2023-05-13T08:39:14;11.60;99.90
9450;DHT22;4763;48.370;10.874;2023-05-13T08:42:02;11.60;99.90
9450;DHT22;4763;48.370;10.874;2023-05-13T08:44:51;11.50;99.90
9450;DHT22;4763;48.370;10.874;2023-05-13T08:47:44;11.60;99.90
9450;DHT22;4763;48.370;10.874;2023-05-13T08:50:35;11.60;99.90
9450;DHT22;4763;48.370;10.874;2023-05-13T08:53:24;11.60;99.90
9450;DHT22;4763;48.370;10.874;2023-05-13T08:56:13;11.70;99.90
9450;DHT22;4763;48.370;10.874;2023-05-13T08:59:00;11.70;99.90
9450;DHT22;4763;48.370;10.874;2023-05-13T09:01:47;11.80;99.90
9450;DHT22;4763;48.370;10.874;2023-05-13T09:04:35;11.90;99.90
9450;DHT22;4763;48.370;10.874;2023-05-13T09:07:29;12.00;99.90
9450;DHT22;4763;48.370;10.874;2023-05-13T09:10:16;12.20;99.90
9450;DHT22;4763;48.370;10.874;2023-05-13T09:13:05;12.40;99.90
9450;DHT22;4763;48.370;10.874;2023-05-13T09:15:52;12.50;99.90
9450;DHT22;4763;48.370;10.874;2023-05-13T09:18:41;12.80;99.90
9450;DHT22;4763;48.370;10.874;2023-05-13T09:21:29;12.90;99.90
9450;DHT22;4763;48.370;10.874;2023-05-13T09:24:16;13.00;99.90
9450;DHT22;4763;48.370;10.874;2023-05-13T09:27:06;13.00;99.90
9450;DHT22;4763;48.370;10.874;2023-05-13T09:29:59;13.00;99.90
9450;DHT22;4763;48.370;10.874;2023-05-13T09:33:04;13.00;99.90
9450;DHT22;4763;48.370;10.874;2023-05-13T09:35:52;13.00;99.90
9450;DHT22;4763;48.370;10.874;2023-05-13T09:38:39;13.10;99.90
9450;DHT22;4763;48.370;10.874;2023-05-13T09:41:26;13.10;99.90
9450;DHT22;4763;48.370;10.874;2023-05-13T09:44:13;12.80;99.90
9450;DHT22;4763;48.370;10.874;2023-05-13T09:47:02;12.80;99.90
9450;DHT22;4763;48.370;10.874;2023-05-13T09:49:54;12.70;99.90
9450;DHT22;4763;48.370;10.874;2023-05-13T09:52:42;12.70;99.90
9450;DHT22;4763;48.370;10.874;2023-05-13T09:55:33;12.50;99.90
9450;DHT22;4763;48.370;10.874;2023-05-13T09:58:20;12.50;99.90
9450;DHT22;4763;48.370;10.874;2023-05-13T10:01:09;12.40;99.90
9450;DHT22;4763;48.370;10.874;2023-05-13T10:03:57;12.50;99.90
9450;DHT22;4763;48.370;10.874;2023-05-13T10:06:46;12.40;99.90
9450;DHT22;4763;48.370;10.874;2023-05-13T10:09:34;12.50;99.90
9450;DHT22;4763;48.370;10.874;2023-05-13T10:12:24;12.60;99.90
9450;DHT22;4763;48.370;10.874;2023-05-13T10:15:11;12.70;99.90
9450;DHT22;4763;48.370;10.874;2023-05-13T10:17:59;12.80;99.90
9450;DHT22;4763;48.370;10.874;2023-05-13T10:20:48;12.90;99.90
9450;DHT22;4763;48.370;10.874;2023-05-13T10:23:37;12.90;99.90
9450;DHT22;4763;48.370;10.874;2023-05-13T10:26:25;12.90;99.90
9450;DHT22;4763;48.370;10.874;2023-05-13T10:29:13;12.90;99.90
9450;DHT22;4763;48.370;10.874;2023-05-13T10:32:01;12.80;99.90
9450;DHT22;4763;48.370;10.874;2023-05-13T10:34:49;12.90;99.90
9450;DHT22;4763;48.370;10.874;2023-05-13T10:37:59;13.00;99.90
9450;DHT22;4763;48.370;10.874;2023-05-13T10:41:04;13.00;99.90
9450;DHT22;4763;48.370;10.874;2023-05-13T10:43:56;13.10;99.90
9450;DHT22;4763;48.370;10.874;2023-05-13T10:46:46;13.20;99.90
9450;DHT22;4763;48.370;10.874;2023-05-13T10:49:34;13.30;99.90
9450;DHT22;4763;48.370;10.874;2023-05-13T10:52:21;13.10;99.90
9450;DHT22;4763;48.370;10.874;2023-05-13T10:55:14;13.10;99.90
9450;DHT22;4763;48.370;10.874;2023-05-13T10:58:12;13.00;99.90
9450;DHT22;4763;48.370;10.874;2023-05-13T11:01:13;13.00;99.90
9450;DHT22;4763;48.370;10.874;2023-05-13T11:04:02;13.00;99.90
9450;DHT22;4763;48.370;10.874;2023-05-13T11:06:52;13.00;99.90
9450;DHT22;4763;48.370;10.874;2023-05-13T11:09:39;13.00;99.90
9450;DHT22;4763;48.370;10.874;2023-05-13T11:12:28;13.10;99.90
9450;DHT22;4763;48.370;10.874;2023-05-13T11:15:20;13.10;99.90
9450;DHT22;4763;48.370;10.874;2023-05-13T11:18:07;12.90;99.90
9450;DHT22;4763;48.370;10.874;2023-05-13T11:20:54;12.80;99.90
9450;DHT22;4763;48.370;10.874;2023-05-13T11:23:52;12.80;99.90
9450;DHT22;4763;48.370;10.874;2023-05-13T11:26:46;12.80;99.90
9450;DHT22;4763;48.370;10.874;2023-05-13T11:29:35;12.90;99.90
9450;DHT22;4763;48.370;10.874;2023-05-13T11:32:51;13.00;99.90
9450;DHT22;4763;48.370;10.874;2023-05-13T11:35:40;13.10;99.90
9450;DHT22;4763;48.370;10.874;2023-05-13T11:38:28;13.10;99.90
9450;DHT22;4763;48.370;10.874;2023-05-13T11:41:18;13.10;99.90
9450;DHT22;4763;48.370;10.874;2023-05-13T11:44:06;13.20;99.90
9450;DHT22;4763;48.370;10.874;2023-05-13T11:46:56;13.20;99.90
9450;DHT22;4763;48.370;10.874;2023-05-13T11:49:44;13.10;99.90
9450;DHT22;4763;48.370;10.874;2023-05-13T11:52:32;13.20;99.90
9450;DHT22;4763;48.370;10.874;2023-05-13T11:55:26;13.20;99.90
9450;DHT22;4763;48.370;10.874;2023-05-13T11:58:13;13.20;99.90
9450;DHT22;4763;48.370;10.874;2023-05-13T12:01:00;13.10;99.90
9450;DHT22;4763;48.370;10.874;2023-05-13T12:03:49;13.10;99.90
9450;DHT22;4763;48.370;10.874;2023-05-13T12:06:42;13.00;99.90
9450;DHT22;4763;48.370;10.874;2023-05-13T12:09:30;13.00;99.90
9450;DHT22;4763;48.370;10.874;2023-05-13T12:12:18;13.00;99.90
9450;DHT22;4763;48.370;10.874;2023-05-13T12:15:08;13.00;99.90
9450;DHT22;4763;48.370;10.874;2023-05-13T12:17:56;12.90;99.90
9450;DHT22;4763;48.370;10.874;2023-05-13T12:20:45;12.80;99.90
9450;DHT22;4763;48.370;10.874;2023-05-13T12:23:37;12.80;99.90
9450;DHT22;4763;48.370;10.874;2023-05-13T12:26:24;12.90;99.90
9450;DHT22;4763;48.370;10.874;2023-05-13T12:29:11;12.90;99.90
9450;DHT22;4763;48.370;10.874;2023-05-13T12:32:04;12.90;99.90
9450;DHT22;4763;48.370;10.874;2023-05-13T12:34:51;12.90;99.90
9450;DHT22;4763;48.370;10.874;2023-05-13T12:37:39;12.90;99.90
9450;DHT22;4763;48.370;10.874;2023-05-13T12:40:26;13.10;99.90
9450;DHT22;4763;48.370;10.874;2023-05-13T12:43:15;13.30;99.90
9450;DHT22;4763;48.370;10.874;2023-05-13T12:46:03;13.70;99.90
9450;DHT22;4763;48.370;10.874;2023-05-13T12:48:54;13.90;99.90
9450;DHT22;4763;48.370;10.874;2023-05-13T12:51:41;14.10;99.90
9450;DHT22;4763;48.370;10.874;2023-05-13T12:54:30;14.20;99.90
9450;DHT22;4763;48.370;10.874;2023-05-13T12:57:18;14.20;99.90
9450;DHT22;4763;48.370;10.874;2023-05-13T13:00:06;14.10;99.90
9450;DHT22;4763;48.370;10.874;2023-05-13T13:02:55;14.10;99.90
9450;DHT22;4763;48.370;10.874;2023-05-13T13:05:42;14.10;99.90
9450;DHT22;4763;48.370;10.874;2023-05-13T13:08:29;14.10;99.90
9450;DHT22;4763;48.370;10.874;2023-05-13T13:11:17;14.00;99.90
9450;DHT22;4763;48.370;10.874;2023-05-13T13:14:04;14.00;99.90
9450;DHT22;4763;48.370;10.874;2023-05-13T13:16:51;13.90;99.90
9450;DHT22;4763;48.370;10.874;2023-05-13T13:19:38;13.80;99.90
9450;DHT22;4763;48.370;10.874;2023-05-13T13:22:26;13.80;99.90
9450;DHT22;4763;48.370;10.874;2023-05-13T13:25:13;13.90;99.90
9450;DHT22;4763;48.370;10.874;2023-05-13T13:28:01;13.90;99.90
9450;DHT22;4763;48.370;10.874;2023-05-13T13:30:48;14.00;99.90
9450;DHT22;4763;48.370;10.874;2023-05-13T13:33:35;14.20;99.90
9450;DHT22;4763;48.370;10.874;2023-05-13T13:36:22;14.30;99.90
9450;DHT22;4763;48.370;10.874;2023-05-13T13:39:09;14.40;99.90
9450;DHT22;4763;48.370;10.874;2023-05-13T13:41:56;14.60;99.90
9450;DHT22;4763;48.370;10.874;2023-05-13T13:44:45;14.60;99.90
9450;DHT22;4763;48.370;10.874;2023-05-13T13:47:32;14.70;99.90
9450;DHT22;4763;48.370;10.874;2023-05-13T13:50:19;14.60;99.90
9450;DHT22;4763;48.370;10.874;2023-05-13T13:53:06;14.80;99.90
9450;DHT22;4763;48.370;10.874;2023-05-13T13:55:54;15.00;99.90
9450;DHT22;4763;48.370;10.874;2023-05-13T13:58:40;15.10;99.90
9450;DHT22;4763;48.370;10.874;2023-05-13T14:01:29;15.40;99.90
9450;DHT22;4763;48.370;10.874;2023-05-13T14:04:17;15.80;99.90
9450;DHT22;4763;48.370;10.874;2023-05-13T14:07:07;15.80;99.90
9450;DHT22;4763;48.370;10.874;2023-05-13T14:09:54;16.00;99.90
9450;DHT22;4763;48.370;10.874;2023-05-13T14:12:41;16.30;99.90
9450;DHT22;4763;48.370;10.874;2023-05-13T14:15:28;16.40;99.90
9450;DHT22;4763;48.370;10.874;2023-05-13T14:18:17;16.30;99.90
9450;DHT22;4763;48.370;10.874;2023-05-13T14:21:04;16.20;99.90
9450;DHT22;4763;48.370;10.874;2023-05-13T14:23:51;16.10;99.90
9450;DHT22;4763;48.370;10.874;2023-05-13T14:26:38;16.00;99.90
9450;DHT22;4763;48.370;10.874;2023-05-13T14:29:25;15.90;99.90
9450;DHT22;4763;48.370;10.874;2023-05-13T14:32:13;15.90;99.90
9450;DHT22;4763;48.370;10.874;2023-05-13T14:35:01;15.70;99.90
9450;DHT22;4763;48.370;10.874;2023-05-13T14:37:48;15.70;99.90
9450;DHT22;4763;48.370;10.874;2023-05-13T14:40:35;15.60;99.90
9450;DHT22;4763;48.370;10.874;2023-05-13T14:43:22;15.60;99.90
9450;DHT22;4763;48.370;10.874;2023-05-13T14:46:09;15.60;99.90
9450;DHT22;4763;48.370;10.874;2023-05-13T14:48:57;15.40;99.90
9450;DHT22;4763;48.370;10.874;2023-05-13T14:51:45;15.30;99.90
9450;DHT22;4763;48.370;10.874;2023-05-13T14:54:33;15.30;99.90
9450;DHT22;4763;48.370;10.874;2023-05-13T14:57:22;15.50;99.90
9450;DHT22;4763;48.370;10.874;2023-05-13T15:00:10;15.40;99.90
9450;DHT22;4763;48.370;10.874;2023-05-13T15:02:57;15.40;99.90
9450;DHT22;4763;48.370;10.874;2023-05-13T15:05:44;15.20;99.90
9450;DHT22;4763;48.370;10.874;2023-05-13T15:08:34;15.10;99.90
9450;DHT22;4763;48.370;10.874;2023-05-13T15:11:21;15.00;99.90
9450;DHT22;4763;48.370;10.874;2023-05-13T15:14:09;14.90;99.90
9450;DHT22;4763;48.370;10.874;2023-05-13T15:16:56;14.80;99.90
9450;DHT22;4763;48.370;10.874;2023-05-13T15:19:43;14.70;99.90
9450;DHT22;4763;48.370;10.874;2023-05-13T15:22:30;14.80;99.90
9450;DHT22;4763;48.370;10.874;2023-05-13T15:25:19;14.70;99.90
9450;DHT22;4763;48.370;10.874;2023-05-13T15:28:06;14.80;99.90
9450;DHT22;4763;48.370;10.874;2023-05-13T15:30:53;14.70;99.90
9450;DHT22;4763;48.370;10.874;2023-05-13T15:33:40;14.70;99.90
9450;DHT22;4763;48.370;10.874;2023-05-13T15:36:27;14.70;99.90
9450;DHT22;4763;48.370;10.874;2023-05-13T15:39:15;14.70;99.90
9450;DHT22;4763;48.370;10.874;2023-05-13T15:42:03;14.80;99.90
9450;DHT22;4763;48.370;10.874;2023-05-13T15:44:51;14.90;99.90
9450;DHT22;4763;48.370;10.874;2023-05-13T15:47:38;14.90;99.90
9450;DHT22;4763;48.370;10.874;2023-05-13T15:50:25;15.10;99.90
9450;DHT22;4763;48.370;10.874;2023-05-13T15:53:12;15.20;99.90
9450;DHT22;4763;48.370;10.874;2023-05-13T15:55:59;15.30;99.90
9450;DHT22;4763;48.370;10.874;2023-05-13T15:58:48;15.30;99.90
9450;DHT22;4763;48.370;10.874;2023-05-13T16:01:35;15.30;99.90
9450;DHT22;4763;48.370;10.874;2023-05-13T16:04:24;15.30;99.90
9450;DHT22;4763;48.370;10.874;2023-05-13T16:07:11;15.30;99.90
9450;DHT22;4763;48.370;10.874;2023-05-13T16:09:58;15.30;99.90
9450;DHT22;4763;48.370;10.874;2023-05-13T16:12:45;15.30;99.90
9450;DHT22;4763;48.370;10.874;2023-05-13T16:15:34;15.30;99.90
9450;DHT22;4763;48.370;10.874;2023-05-13T16:18:21;15.20;99.90
9450;DHT22;4763;48.370;10.874;2023-05-13T16:21:08;15.10;99.90
9450;DHT22;4763;48.370;10.874;2023-05-13T16:23:55;15.00;99.90
9450;DHT22;4763;48.370;10.874;2023-05-13T16:26:42;14.90;99.90
9450;DHT22;4763;48.370;10.874;2023-05-13T16:29:29;14.70;99.90
9450;DHT22;4763;48.370;10.874;2023-05-13T16:32:18;14.70;99.90
9450;DHT22;4763;48.370;10.874;2023-05-13T16:35:06;14.60;99.90
9450;DHT22;4763;48.370;10.874;2023-05-13T16:37:54;14.60;99.90
9450;DHT22;4763;48.370;10.874;2023-05-13T16:40:41;14.60;99.90
9450;DHT22;4763;48.370;10.874;2023-05-13T16:43:28;14.50;99.90
9450;DHT22;4763;48.370;10.874;2023-05-13T16:46:16;14.40;99.90
9450;DHT22;4763;48.370;10.874;2023-05-13T16:49:04;14.30;99.90
9450;DHT22;4763;48.370;10.874;2023-05-13T16:51:51;14.20;99.90
9450;DHT22;4763;48.370;10.874;2023-05-13T16:54:38;14.20;99.90
9450;DHT22;4763;48.370;10.874;2023-05-13T16:57:25;14.20;99.90
9450;DHT22;4763;48.370;10.874;2023-05-13T17:00:13;14.10;99.90
9450;DHT22;4763;48.370;10.874;2023-05-13T17:03:00;14.10;99.90
9450;DHT22;4763;48.370;10.874;2023-05-13T17:05:48;14.10;99.90
9450;DHT22;4763;48.370;10.874;2023-05-13T17:08:35;14.00;99.90
9450;DHT22;4763;48.370;10.874;2023-05-13T17:11:22;14.00;99.90
9450;DHT22;4763;48.370;10.874;2023-05-13T17:14:09;13.90;99.90
9450;DHT22;4763;48.370;10.874;2023-05-13T17:16:56;13.90;99.90
9450;DHT22;4763;48.370;10.874;2023-05-13T17:19:43;13.90;99.90
9450;DHT22;4763;48.370;10.874;2023-05-13T17:22:32;13.80;99.90
9450;DHT22;4763;48.370;10.874;2023-05-13T17:25:19;13.90;99.90
9450;DHT22;4763;48.370;10.874;2023-05-13T17:28:06;13.90;99.90
9450;DHT22;4763;48.370;10.874;2023-05-13T17:30:53;13.80;99.90
9450;DHT22;4763;48.370;10.874;2023-05-13T17:33:40;13.80;99.90
9450;DHT22;4763;48.370;10.874;2023-05-13T17:36:27;13.80;99.90
9450;DHT22;4763;48.370;10.874;2023-05-13T17:39:16;13.70;99.90
9450;DHT22;4763;48.370;10.874;2023-05-13T17:42:03;13.70;99.90
9450;DHT22;4763;48.370;10.874;2023-05-13T17:44:50;13.70;99.90
9450;DHT22;4763;48.370;10.874;2023-05-13T17:47:37;13.70;99.90
9450;DHT22;4763;48.370;10.874;2023-05-13T17:50:24;13.70;99.90
9450;DHT22;4763;48.370;10.874;2023-05-13T17:53:13;13.70;99.90
9450;DHT22;4763;48.370;10.874;2023-05-13T17:56:01;13.60;99.90
9450;DHT22;4763;48.370;10.874;2023-05-13T17:58:49;13.60;99.90